Terminal Aerodrome Forecast
Issued by NWS

Home | Current Version | Previous Version | Text Only | Print | Product List | Glossary On
Versions: 1 2 3 4 5 6 7 8 9 10 11 12 13 14 15
000
FTUS42 KILM 291700
TAFCRE
TAF
KCRE 291740Z 2918/3018 06006KT P6SM BKN045 BKN090
     FM292000 14007KT P6SM SCT050 SCT090
     FM300000 VRB02KT P6SM FEW060
     FM301400 08006KT P6SM SCT040=

USA.gov is the U.S. government's official web portal to all federal, state and local government web resources and services.